Time;durP1;ratioP1;P1;durP2;ratioP2;P2;SDS_P1;SDS_P2;PMS_P1;PMS_P2;Temp;Humidity;BMP_temperature;BMP_pressure;BME280_temperature;BME280_humidity;BME280_pressure;Samples;Min_cycle;Max_cycle;Signal;HPM_P1;HPM_P2
2022/04/11 00:02:05;;;;;;;5.95;5.33;;;;;;;;;;742833;80;26213;-76
2022/04/11 00:03:10;;;;;;;6.20;5.70;;;;;;;;;;729523;81;26273;-74
2022/04/11 00:04:13;;;;;;;5.80;5.25;;;;;;;;;;730194;81;26361;-75
2022/04/11 00:05:17;;;;;;;6.03;5.53;;;;;;;;;;742888;80;26284;-75
2022/04/11 00:06:24;;;;;;;6.30;5.80;;;;;;;;;;742249;79;26746;-75
2022/04/11 00:11:27;;;;;;;7.08;5.85;;;;;;;;;;730949;81;26238;-74
2022/04/11 00:12:35;;;;;;;5.78;5.22;;;;;;;;;;741987;79;26804;-74
2022/04/11 00:13:40;;;;;;;5.95;5.45;;;;;;;;;;744831;79;26351;-77
2022/04/11 00:14:46;;;;;;;5.85;5.35;;;;;;;;;;738258;80;26362;-76
2022/04/11 00:15:51;;;;;;;6.40;5.80;;;;;;;;;;736920;80;26270;-76
2022/04/11 00:16:54;;;;;;;5.97;5.47;;;;;;;;;;731943;81;26354;-75
2022/04/11 00:20:29;;;;;;;5.40;4.90;;;;;;;;;;737985;80;26214;-76
2022/04/11 00:21:33;;;;;;;5.42;4.90;;;;;;;;;;738109;80;26332;-74
2022/04/11 00:22:37;;;;;;;5.80;5.30;;;;;;;;;;743551;80;26733;-76
2022/04/11 00:23:42;;;;;;;6.28;5.67;;;;;;;;;;743572;80;26335;-75
2022/04/11 00:24:52;;;;;;;5.40;5.00;;;;;;;;;;736716;80;26352;-75
2022/04/11 00:26:04;;;;;;;6.45;5.83;;;;;;;;;;743847;80;26261;-76
2022/04/11 00:32:59;;;;;;;5.70;5.20;;;;;;;;;;742954;80;26268;-76
2022/04/11 00:34:04;;;;;;;5.92;5.30;;;;;;;;;;748573;79;26723;-75
2022/04/11 00:35:09;;;;;;;5.47;4.90;;;;;;;;;;738973;80;26772;-74
2022/04/11 00:36:16;;;;;;;5.37;4.87;;;;;;;;;;748596;79;26267;-74
2022/04/11 00:40:37;;;;;;;5.03;4.62;;;;;;;;;;706336;81;26252;-75
2022/04/11 00:41:48;;;;;;;6.03;4.75;;;;;;;;;;735715;80;26281;-75
2022/04/11 00:42:52;;;;;;;8.30;5.20;;;;;;;;;;750438;79;26343;-75
2022/04/11 00:43:55;;;;;;;5.30;4.90;;;;;;;;;;750263;79;26315;-76
2022/04/11 00:45:03;;;;;;;5.42;5.03;;;;;;;;;;734060;81;26278;-75
2022/04/11 00:46:12;;;;;;;5.45;4.95;;;;;;;;;;736548;79;26362;-75
2022/04/11 00:51:08;;;;;;;8.58;5.20;;;;;;;;;;737023;80;26273;-74
2022/04/11 00:52:13;;;;;;;5.25;4.75;;;;;;;;;;737728;80;26249;-74
2022/04/11 00:53:17;;;;;;;5.75;5.25;;;;;;;;;;724505;82;26272;-74
2022/04/11 00:54:23;;;;;;;5.70;5.25;;;;;;;;;;739251;80;26324;-73
2022/04/11 00:55:27;;;;;;;5.83;5.25;;;;;;;;;;724970;80;26355;-73
2022/04/11 00:56:35;;;;;;;5.53;5.10;;;;;;;;;;736578;80;26719;-73
2022/04/11 01:02:54;;;;;;;5.33;4.92;;;;;;;;;;748921;79;26245;-76
2022/04/11 01:04:05;;;;;;;5.90;5.30;;;;;;;;;;748922;79;26266;-75
2022/04/11 01:05:10;;;;;;;5.62;5.22;;;;;;;;;;749870;77;26270;-74
2022/04/11 01:06:13;;;;;;;5.33;4.80;;;;;;;;;;748813;79;26270;-74
2022/04/11 01:10:48;;;;;;;5.33;4.83;;;;;;;;;;765569;77;26706;-74
2022/04/11 01:11:52;;;;;;;4.95;4.47;;;;;;;;;;762285;78;26266;-75
2022/04/11 01:12:55;;;;;;;5.92;5.42;;;;;;;;;;776978;76;26247;-75
2022/04/11 01:20:57;;;;;;;5.20;4.70;;;;;;;;;;767762;77;26166;-75
2022/04/11 01:22:02;;;;;;;6.12;4.85;;;;;;;;;;762863;77;26299;-75
2022/04/11 01:23:10;;;;;;;5.30;4.72;;;;;;;;;;765365;77;26798;-75
2022/04/11 01:24:14;;;;;;;4.37;4.08;;;;;;;;;;764618;77;26779;-74
2022/04/11 01:25:19;;;;;;;4.78;4.47;;;;;;;;;;766439;77;26257;-74
2022/04/11 01:26:27;;;;;;;5.12;4.72;;;;;;;;;;778311;76;26322;-75
2022/04/11 01:29:36;;;;;;;6.35;5.12;;;;;;;;;;780672;76;24325;-75
2022/04/11 01:30:39;;;;;;;5.47;4.97;;;;;;;;;;780487;76;26228;-75
2022/04/11 01:31:43;;;;;;;6.15;5.35;;;;;;;;;;780576;76;26295;-76
2022/04/11 01:33:06;;;;;;;5.20;4.70;;;;;;;;;;780300;76;26260;-74
2022/04/11 01:34:11;;;;;;;7.50;5.35;;;;;;;;;;780507;76;26319;-74
2022/04/11 01:35:34;;;;;;;4.95;4.55;;;;;;;;;;766561;77;26316;-74
2022/04/11 01:36:40;;;;;;;4.95;4.53;;;;;;;;;;766523;77;26644;-74
2022/04/11 01:40:00;;;;;;;5.62;5.00;;;;;;;;;;782407;76;26179;-75
2022/04/11 01:41:06;;;;;;;5.15;4.62;;;;;;;;;;782281;76;26206;-75
2022/04/11 01:42:09;;;;;;;4.28;3.98;;;;;;;;;;781946;76;26236;-75
2022/04/11 01:43:31;;;;;;;5.00;4.50;;;;;;;;;;779123;76;26214;-74
2022/04/11 01:44:36;;;;;;;6.95;5.10;;;;;;;;;;781789;76;26260;-75
2022/04/11 01:45:43;;;;;;;5.53;4.75;;;;;;;;;;780931;76;26205;-74
2022/04/11 01:46:46;;;;;;;4.70;4.40;;;;;;;;;;781377;76;26736;-74
2022/04/11 01:50:17;;;;;;;6.15;4.40;;;;;;;;;;754269;78;26262;-74
2022/04/11 01:56:50;;;;;;;4.60;4.25;;;;;;;;;;752162;79;26270;-74
2022/04/11 02:01:36;;;;;;;4.83;4.42;;;;;;;;;;771612;77;26595;-75
2022/04/11 02:20:56;;;;;;;5.12;4.62;;;;;;;;;;767107;77;26191;-73
2022/04/11 02:22:01;;;;;;;4.87;4.45;;;;;;;;;;775490;76;26241;-75
2022/04/11 02:23:22;;;;;;;4.85;4.45;;;;;;;;;;765186;77;26729;-75
2022/04/11 02:24:28;;;;;;;4.60;4.20;;;;;;;;;;751705;77;26264;-74
2022/04/11 02:25:50;;;;;;;4.70;4.30;;;;;;;;;;769616;76;26247;-75
2022/04/11 02:26:57;;;;;;;5.17;4.65;;;;;;;;;;779958;76;26296;-75
2022/04/11 02:28:16;;;;;;;4.90;4.50;;;;;;;;;;779893;76;26317;-75
2022/04/11 02:29:21;;;;;;;5.62;5.12;;;;;;;;;;779835;76;26701;-75
2022/04/11 02:30:31;;;;;;;5.25;4.55;;;;;;;;;;779574;76;26242;-74
2022/04/11 02:31:33;;;;;;;5.75;5.15;;;;;;;;;;778761;76;26246;-74
2022/04/11 02:32:49;;;;;;;4.80;4.40;;;;;;;;;;778796;76;26252;-73
2022/04/11 02:33:57;;;;;;;6.55;4.83;;;;;;;;;;778721;76;26247;-74
2022/04/11 02:35:03;;;;;;;5.08;4.25;;;;;;;;;;778739;76;26248;-74
2022/04/11 02:36:14;;;;;;;5.87;5.28;;;;;;;;;;777665;76;26332;-74
2022/04/11 02:39:18;;;;;;;5.30;4.90;;;;;;;;;;765415;77;26341;-74
2022/04/11 02:40:25;;;;;;;5.20;4.70;;;;;;;;;;765552;76;26261;-76
2022/04/11 02:41:49;;;;;;;5.25;4.75;;;;;;;;;;752013;78;26421;-74
2022/04/11 02:43:02;;;;;;;6.40;5.40;;;;;;;;;;738107;80;26288;-74
2022/04/11 02:44:07;;;;;;;5.55;5.05;;;;;;;;;;737804;80;26293;-76
2022/04/11 02:45:16;;;;;;;5.30;4.80;;;;;;;;;;735791;80;26284;-74
2022/04/11 02:46:20;;;;;;;5.40;4.58;;;;;;;;;;737575;80;26356;-74
2022/04/11 02:52:52;;;;;;;4.55;4.20;;;;;;;;;;751624;79;26246;-73
2022/04/11 02:53:55;;;;;;;4.60;4.08;;;;;;;;;;750574;79;26259;-74
2022/04/11 02:54:59;;;;;;;6.22;4.22;;;;;;;;;;763317;77;26309;-74
2022/04/11 02:56:02;;;;;;;9.25;5.83;;;;;;;;;;763286;77;26241;-75
2022/04/11 02:58:51;;;;;;;4.30;4.00;;;;;;;;;;734515;81;26199;-74
2022/04/11 02:59:54;;;;;;;5.00;4.50;;;;;;;;;;762317;78;26672;-74
2022/04/11 03:00:57;;;;;;;4.80;4.50;;;;;;;;;;761820;77;26212;-73
2022/04/11 03:02:03;;;;;;;4.83;4.42;;;;;;;;;;762532;77;26287;-74
2022/04/11 03:03:07;;;;;;;4.33;3.92;;;;;;;;;;762745;78;26215;-75
2022/04/11 03:04:10;;;;;;;5.15;4.60;;;;;;;;;;762756;78;26219;-75
2022/04/11 03:05:13;;;;;;;4.58;4.28;;;;;;;;;;762743;78;26273;-75
2022/04/11 03:06:17;;;;;;;6.15;4.97;;;;;;;;;;762817;78;26220;-74
2022/04/11 03:10:51;;;;;;;4.78;4.37;;;;;;;;;;727205;82;26291;-73
2022/04/11 03:11:55;;;;;;;5.17;4.60;;;;;;;;;;726058;82;26295;-73
2022/04/11 03:12:58;;;;;;;5.12;4.65;;;;;;;;;;726115;82;26345;-73
2022/04/11 03:14:02;;;;;;;5.08;4.65;;;;;;;;;;726153;82;26294;-75
2022/04/11 03:15:07;;;;;;;5.05;4.55;;;;;;;;;;726172;82;26361;-74
2022/04/11 03:16:09;;;;;;;5.37;4.85;;;;;;;;;;726360;82;26267;-75
2022/04/11 03:19:35;;;;;;;5.10;4.60;;;;;;;;;;760696;78;26185;-73
2022/04/11 03:20:40;;;;;;;5.67;4.80;;;;;;;;;;760923;77;26251;-74
2022/04/11 03:21:42;;;;;;;6.65;4.60;;;;;;;;;;760695;77;26318;-73
2022/04/11 03:22:58;;;;;;;5.17;4.50;;;;;;;;;;760425;77;26309;-73
2022/04/11 03:24:02;;;;;;;5.53;4.97;;;;;;;;;;760450;77;26255;-72
2022/04/11 03:25:06;;;;;;;5.33;4.83;;;;;;;;;;760353;77;26321;-73
2022/04/11 03:26:11;;;;;;;5.20;4.75;;;;;;;;;;760393;77;26248;-73
2022/04/11 03:27:15;;;;;;;6.67;5.30;;;;;;;;;;760513;77;26247;-73
2022/04/11 03:28:20;;;;;;;5.33;4.92;;;;;;;;;;760809;77;26239;-74
2022/04/11 03:29:22;;;;;;;5.17;4.67;;;;;;;;;;760428;77;26313;-74
2022/04/11 03:30:28;;;;;;;5.55;4.75;;;;;;;;;;760656;77;26248;-74
2022/04/11 03:31:31;;;;;;;5.75;5.10;;;;;;;;;;761104;77;26742;-76
2022/04/11 03:32:34;;;;;;;4.90;4.50;;;;;;;;;;761123;77;26242;-73
2022/04/11 03:33:37;;;;;;;5.60;5.10;;;;;;;;;;761318;77;26243;-72
2022/04/11 03:34:41;;;;;;;4.90;4.50;;;;;;;;;;760933;77;26301;-77
2022/04/11 03:35:54;;;;;;;;;;;;;;;;;;;;;
2022/04/11 03:40:21;;;;;;;5.20;4.50;;;;;;;;;;722564;82;26208;-72
2022/04/11 03:41:28;;;;;;;6.65;5.25;;;;;;;;;;722464;82;26291;-71
2022/04/11 03:42:35;;;;;;;5.70;5.20;;;;;;;;;;731138;79;24395;-74
2022/04/11 03:43:38;;;;;;;5.58;5.08;;;;;;;;;;744969;79;26274;-73
2022/04/11 03:44:42;;;;;;;5.50;5.05;;;;;;;;;;745138;79;26275;-71
2022/04/11 03:45:50;;;;;;;7.15;6.12;;;;;;;;;;744975;79;26266;-72
2022/04/11 03:46:53;;;;;;;5.45;4.97;;;;;;;;;;744655;79;26270;-74
2022/04/11 03:47:57;;;;;;;5.90;5.40;;;;;;;;;;744547;79;26270;-73
2022/04/11 03:49:04;;;;;;;5.80;5.20;;;;;;;;;;744542;79;26274;-73
2022/04/11 03:50:09;;;;;;;5.37;4.90;;;;;;;;;;744524;79;26290;-72
2022/04/11 03:51:20;;;;;;;5.47;4.97;;;;;;;;;;743106;79;24314;-72
2022/04/11 03:52:30;;;;;;;5.95;5.35;;;;;;;;;;744559;79;26325;-72
2022/04/11 03:53:33;;;;;;;5.83;4.97;;;;;;;;;;744521;79;26270;-74
2022/04/11 03:54:42;;;;;;;5.65;5.10;;;;;;;;;;744461;79;26344;-73
2022/04/11 03:55:48;;;;;;;5.00;4.60;;;;;;;;;;744515;79;26280;-72
2022/04/11 03:58:48;;;;;;;6.05;5.33;;;;;;;;;;726726;82;26237;-73
2022/04/11 03:59:53;;;;;;;5.90;5.40;;;;;;;;;;735555;81;26286;-72
2022/04/11 04:00:58;;;;;;;5.40;4.95;;;;;;;;;;727402;81;26355;-72
2022/04/11 04:02:03;;;;;;;6.30;5.30;;;;;;;;;;735134;81;26797;-71
2022/04/11 04:03:07;;;;;;;5.78;5.10;;;;;;;;;;735145;81;26282;-72
2022/04/11 04:04:10;;;;;;;5.97;5.40;;;;;;;;;;734819;81;26328;-75
2022/04/11 04:05:13;;;;;;;5.60;5.20;;;;;;;;;;734780;81;26306;-72
2022/04/11 04:06:19;;;;;;;5.75;5.28;;;;;;;;;;734636;81;26282;-73
2022/04/11 04:07:22;;;;;;;6.00;4.90;;;;;;;;;;734627;81;26301;-72
2022/04/11 04:08:25;;;;;;;6.55;5.85;;;;;;;;;;734692;80;26285;-72
2022/04/11 04:09:27;;;;;;;6.50;5.90;;;;;;;;;;734687;81;26711;-73
2022/04/11 04:10:30;;;;;;;6.75;5.55;;;;;;;;;;734702;81;26351;-71
2022/04/11 04:11:33;;;;;;;5.90;5.30;;;;;;;;;;734678;80;26805;-73
2022/04/11 04:12:36;;;;;;;6.83;5.40;;;;;;;;;;734747;81;26367;-71
2022/04/11 04:13:39;;;;;;;5.75;5.15;;;;;;;;;;734779;81;26434;-72
2022/04/11 04:14:41;;;;;;;6.10;5.45;;;;;;;;;;734951;81;26282;-72
2022/04/11 04:19:22;;;;;;;5.87;5.12;;;;;;;;;;774185;76;26209;-73
2022/04/11 04:20:26;;;;;;;6.40;5.55;;;;;;;;;;766834;77;26365;-71
2022/04/11 04:27:02;;;;;;;6.33;5.72;;;;;;;;;;769042;77;26272;-73
2022/04/11 04:28:05;;;;;;;6.67;5.87;;;;;;;;;;780809;75;26407;-72
2022/04/11 04:29:08;;;;;;;6.85;6.20;;;;;;;;;;783049;76;26244;-72
2022/04/11 04:30:12;;;;;;;6.90;6.20;;;;;;;;;;783239;75;26248;-72
2022/04/11 04:31:15;;;;;;;8.98;6.47;;;;;;;;;;783380;76;26237;-73
2022/04/11 04:32:19;;;;;;;7.97;6.35;;;;;;;;;;783320;76;26740;-73
2022/04/11 04:33:22;;;;;;;7.40;5.90;;;;;;;;;;783326;76;26310;-73
2022/04/11 04:34:32;;;;;;;6.65;6.05;;;;;;;;;;783536;76;26722;-72
2022/04/11 04:37:39;;;;;;;6.30;5.70;;;;;;;;;;749672;77;26298;-72
2022/04/11 04:38:42;;;;;;;6.87;6.22;;;;;;;;;;768768;77;26308;-71
2022/04/11 04:39:45;;;;;;;5.60;5.20;;;;;;;;;;768886;77;26261;-73
2022/04/11 04:40:48;;;;;;;6.45;5.67;;;;;;;;;;768852;77;26253;-73
2022/04/11 04:41:51;;;;;;;6.80;6.10;;;;;;;;;;767787;77;26705;-73
2022/04/11 04:42:53;;;;;;;7.00;6.15;;;;;;;;;;768749;77;26307;-72
2022/04/11 04:43:56;;;;;;;6.78;6.12;;;;;;;;;;769584;77;26253;-72
2022/04/11 04:44:59;;;;;;;8.68;6.22;;;;;;;;;;769776;77;26245;-74
2022/04/11 04:48:17;;;;;;;6.05;5.55;;;;;;;;;;769132;77;26186;-73
2022/04/11 04:49:20;;;;;;;7.80;6.30;;;;;;;;;;794421;74;26286;-71
2022/04/11 04:50:22;;;;;;;7.33;6.62;;;;;;;;;;794830;74;26240;-72
2022/04/11 04:51:25;;;;;;;6.83;6.12;;;;;;;;;;794961;74;26690;-73
2022/04/11 04:52:29;;;;;;;6.50;5.90;;;;;;;;;;795097;74;26298;-73
2022/04/11 04:53:32;;;;;;;7.95;7.15;;;;;;;;;;795002;74;26313;-72
2022/04/11 04:54:35;;;;;;;7.95;7.12;;;;;;;;;;794998;74;26236;-71
2022/04/11 04:57:27;;;;;;;6.90;6.20;;;;;;;;;;758783;78;26308;-72
2022/04/11 04:58:30;;;;;;;6.62;6.00;;;;;;;;;;758389;78;26265;-73
2022/04/11 04:59:34;;;;;;;6.65;6.05;;;;;;;;;;758979;78;26302;-73
2022/04/11 05:00:38;;;;;;;6.25;5.65;;;;;;;;;;759135;78;26253;-71
2022/04/11 05:01:41;;;;;;;6.85;5.90;;;;;;;;;;758624;78;26261;-72
2022/04/11 05:02:46;;;;;;;6.25;5.65;;;;;;;;;;737294;80;26282;-73
2022/04/11 05:03:50;;;;;;;7.53;6.53;;;;;;;;;;757989;78;26330;-72
2022/04/11 05:07:09;;;;;;;6.85;6.25;;;;;;;;;;758329;78;26274;-73
2022/04/11 05:08:11;;;;;;;7.28;6.58;;;;;;;;;;806318;73;26300;-73
2022/04/11 05:13:08;;;;;;;6.85;6.15;;;;;;;;;;797913;74;26223;-72
2022/04/11 05:14:11;;;;;;;6.33;5.75;;;;;;;;;;797408;74;26338;-73
2022/04/11 05:17:11;;;;;;;6.70;5.90;;;;;;;;;;811551;73;26207;-74
2022/04/11 05:18:14;;;;;;;6.70;6.03;;;;;;;;;;811394;73;26228;-72
2022/04/11 05:19:17;;;;;;;8.18;6.83;;;;;;;;;;811382;73;26746;-73
2022/04/11 05:20:19;;;;;;;7.83;7.03;;;;;;;;;;811434;73;26684;-72
2022/04/11 05:21:22;;;;;;;6.80;6.17;;;;;;;;;;811444;73;26227;-71
2022/04/11 05:22:25;;;;;;;8.65;7.25;;;;;;;;;;811445;73;26710;-72
2022/04/11 05:23:28;;;;;;;8.15;6.28;;;;;;;;;;811461;73;26220;-71
2022/04/11 05:24:31;;;;;;;7.50;6.80;;;;;;;;;;811428;73;26227;-73
2022/04/11 05:27:31;;;;;;;7.97;6.50;;;;;;;;;;780530;76;26739;-74
2022/04/11 05:28:37;;;;;;;7.40;6.70;;;;;;;;;;794845;74;26245;-74
2022/04/11 05:29:40;;;;;;;8.23;6.95;;;;;;;;;;794844;74;26687;-73
2022/04/11 05:30:43;;;;;;;7.05;6.45;;;;;;;;;;794882;74;26307;-73
2022/04/11 05:31:45;;;;;;;7.03;6.33;;;;;;;;;;794906;74;26241;-72
2022/04/11 05:32:48;;;;;;;7.05;6.45;;;;;;;;;;794887;74;26382;-72
2022/04/11 05:33:51;;;;;;;8.10;6.80;;;;;;;;;;794860;74;26314;-72
2022/04/11 05:36:52;;;;;;;7.95;6.17;;;;;;;;;;793833;74;26308;-72
2022/04/11 05:37:54;;;;;;;7.10;6.50;;;;;;;;;;793579;75;26234;-73
2022/04/11 05:38:58;;;;;;;7.67;6.00;;;;;;;;;;793588;75;26732;-73
2022/04/11 05:40:03;;;;;;;6.85;6.15;;;;;;;;;;778262;76;26250;-74
2022/04/11 05:41:06;;;;;;;6.42;5.90;;;;;;;;;;778535;76;26244;-72
2022/04/11 05:42:09;;;;;;;8.18;6.40;;;;;;;;;;764906;77;26257;-73
2022/04/11 05:43:13;;;;;;;7.17;6.40;;;;;;;;;;788306;75;26704;-72
2022/04/11 05:44:16;;;;;;;6.17;5.62;;;;;;;;;;788022;75;26308;-75
2022/04/11 05:45:20;;;;;;;6.50;5.78;;;;;;;;;;787533;75;26682;-75
2022/04/11 05:48:11;;;;;;;6.45;5.72;;;;;;;;;;777227;76;26279;-76
2022/04/11 05:49:14;;;;;;;6.72;6.12;;;;;;;;;;777460;76;26244;-75
2022/04/11 05:50:17;;;;;;;6.90;6.30;;;;;;;;;;777568;76;26306;-76
2022/04/11 05:51:20;;;;;;;10.30;6.97;;;;;;;;;;778214;76;26338;-76
2022/04/11 05:52:23;;;;;;;6.80;6.10;;;;;;;;;;778258;76;26270;-76
2022/04/11 05:53:26;;;;;;;7.33;6.25;;;;;;;;;;778317;76;26243;-76
2022/04/11 05:59:41;;;;;;;6.65;6.00;;;;;;;;;;751691;78;26227;-73
2022/04/11 06:00:44;;;;;;;8.05;6.58;;;;;;;;;;738674;80;26280;-75
2022/04/11 06:01:47;;;;;;;6.95;6.30;;;;;;;;;;750380;78;26329;-75
2022/04/11 06:02:50;;;;;;;7.08;5.87;;;;;;;;;;750465;79;26259;-75
2022/04/11 06:03:54;;;;;;;6.60;6.00;;;;;;;;;;750522;79;26359;-75
2022/04/11 06:07:02;;;;;;;7.25;5.92;;;;;;;;;;750718;79;26647;-75
2022/04/11 06:08:05;;;;;;;7.05;6.00;;;;;;;;;;764042;77;26802;-75
2022/04/11 06:09:08;;;;;;;8.23;6.60;;;;;;;;;;764060;77;26272;-76
2022/04/11 06:10:11;;;;;;;6.80;6.10;;;;;;;;;;764012;77;26260;-75
2022/04/11 06:11:14;;;;;;;7.80;6.78;;;;;;;;;;764078;77;26264;-75
2022/04/11 06:12:17;;;;;;;7.22;6.55;;;;;;;;;;764033;77;26378;-75
2022/04/11 06:13:20;;;;;;;8.10;6.67;;;;;;;;;;764162;77;26302;-76
2022/04/11 06:14:23;;;;;;;7.25;6.55;;;;;;;;;;764157;77;26252;-75
2022/04/11 06:17:29;;;;;;;7.60;6.90;;;;;;;;;;764785;77;26196;-76
2022/04/11 06:18:32;;;;;;;6.67;5.97;;;;;;;;;;783408;76;26327;-75
2022/04/11 06:19:35;;;;;;;7.45;6.40;;;;;;;;;;783185;76;26346;-75
2022/04/11 06:20:38;;;;;;;7.62;6.83;;;;;;;;;;783009;76;26244;-76
2022/04/11 06:21:40;;;;;;;7.50;6.80;;;;;;;;;;783224;76;26315;-75
2022/04/11 06:22:45;;;;;;;7.10;6.40;;;;;;;;;;783299;76;26234;-76
2022/04/11 06:23:48;;;;;;;6.95;6.25;;;;;;;;;;783408;76;26291;-75
2022/04/11 06:28:19;;;;;;;7.22;6.53;;;;;;;;;;764222;77;26250;-76
2022/04/11 06:29:23;;;;;;;8.65;6.10;;;;;;;;;;764079;78;26262;-75
2022/04/11 06:30:26;;;;;;;7.03;6.42;;;;;;;;;;763793;78;26344;-76
2022/04/11 06:31:29;;;;;;;9.63;6.90;;;;;;;;;;763805;77;26321;-77
2022/04/11 06:32:33;;;;;;;7.20;6.60;;;;;;;;;;764354;78;26325;-75
2022/04/11 06:33:36;;;;;;;7.75;6.90;;;;;;;;;;764104;78;26255;-74
2022/04/11 06:38:20;;;;;;;7.65;6.72;;;;;;;;;;764095;77;26692;-74
2022/04/11 06:39:23;;;;;;;9.50;7.40;;;;;;;;;;764083;77;26725;-75
2022/04/11 06:40:26;;;;;;;7.75;6.95;;;;;;;;;;764133;77;26252;-74
2022/04/11 06:41:29;;;;;;;7.10;6.40;;;;;;;;;;764112;77;26314;-75
2022/04/11 06:42:32;;;;;;;7.30;6.60;;;;;;;;;;763994;77;26678;-75
2022/04/11 06:52:41;;;;;;;9.70;8.70;;;;;;;;;;764051;77;26617;-75
2022/04/11 06:53:44;;;;;;;8.95;8.13;;;;;;;;;;764347;77;26275;-75
2022/04/11 06:58:35;;;;;;;8.60;6.50;;;;;;;;;;761499;78;26144;-75
2022/04/11 06:59:41;;;;;;;6.87;6.25;;;;;;;;;;761545;78;26304;-75
2022/04/11 07:00:44;;;;;;;6.95;6.35;;;;;;;;;;761518;78;26595;-75
2022/04/11 07:01:47;;;;;;;8.05;7.22;;;;;;;;;;761621;78;26307;-74
2022/04/11 07:02:52;;;;;;;7.70;6.90;;;;;;;;;;762475;78;26251;-75
2022/04/11 07:03:59;;;;;;;7.25;6.37;;;;;;;;;;761543;78;26412;-75
2022/04/11 07:07:14;;;;;;;6.65;6.05;;;;;;;;;;748631;79;26329;-76
2022/04/11 07:08:17;;;;;;;7.30;6.22;;;;;;;;;;749178;79;26263;-74
2022/04/11 07:09:20;;;;;;;7.10;6.50;;;;;;;;;;749249;79;26360;-76
2022/04/11 07:10:22;;;;;;;8.00;6.22;;;;;;;;;;748788;79;26349;-74
2022/04/11 07:11:25;;;;;;;6.95;6.35;;;;;;;;;;749209;79;26755;-74
2022/04/11 07:12:28;;;;;;;7.40;6.70;;;;;;;;;;749347;79;26344;-75
2022/04/11 07:13:31;;;;;;;12.40;6.58;;;;;;;;;;748889;79;26465;-75
2022/04/11 07:16:31;;;;;;;6.90;6.25;;;;;;;;;;737339;80;26341;-74
2022/04/11 07:17:36;;;;;;;9.33;5.90;;;;;;;;;;737490;80;26331;-75
2022/04/11 07:18:38;;;;;;;6.60;5.97;;;;;;;;;;737552;80;26825;-76
2022/04/11 07:19:41;;;;;;;7.42;6.67;;;;;;;;;;737266;80;26360;-75
2022/04/11 07:20:44;;;;;;;6.60;6.00;;;;;;;;;;736839;80;26342;-74
2022/04/11 07:21:47;;;;;;;6.70;6.10;;;;;;;;;;736796;80;26353;-75
2022/04/11 07:22:50;;;;;;;6.40;5.80;;;;;;;;;;737074;80;26330;-75
2022/04/11 07:23:53;;;;;;;6.35;5.80;;;;;;;;;;736763;80;26715;-75
2022/04/11 07:27:11;;;;;;;7.37;6.30;;;;;;;;;;751748;78;26785;-75
2022/04/11 07:28:13;;;;;;;7.78;6.35;;;;;;;;;;751692;79;26278;-76
2022/04/11 07:29:16;;;;;;;6.10;5.50;;;;;;;;;;751601;79;26394;-76
2022/04/11 07:36:16;;;;;;;6.70;6.10;;;;;;;;;;734118;81;26318;-75
2022/04/11 07:37:19;;;;;;;7.22;6.53;;;;;;;;;;760353;78;26765;-75
2022/04/11 07:38:22;;;;;;;8.23;6.40;;;;;;;;;;760238;78;26263;-74
2022/04/11 07:39:24;;;;;;;7.53;6.58;;;;;;;;;;760225;78;26250;-75
2022/04/11 07:40:28;;;;;;;6.67;6.08;;;;;;;;;;760406;78;26703;-77
2022/04/11 07:41:31;;;;;;;6.58;5.97;;;;;;;;;;760256;78;26696;-74
2022/04/11 07:42:33;;;;;;;6.55;5.95;;;;;;;;;;760266;78;26311;-75
2022/04/11 07:43:36;;;;;;;6.33;5.72;;;;;;;;;;760223;78;26252;-75
2022/04/11 07:49:54;;;;;;;6.37;5.78;;;;;;;;;;739935;79;26209;-75
2022/04/11 07:50:58;;;;;;;6.70;6.10;;;;;;;;;;739523;80;26334;-75
2022/04/11 07:52:02;;;;;;;6.03;5.55;;;;;;;;;;739598;80;26277;-75
2022/04/11 07:53:05;;;;;;;6.17;5.55;;;;;;;;;;739556;80;26280;-77
2022/04/11 07:58:12;;;;;;;7.40;6.08;;;;;;;;;;726829;81;26706;-74
2022/04/11 07:59:16;;;;;;;7.15;6.35;;;;;;;;;;746098;79;26257;-75
2022/04/11 08:00:18;;;;;;;7.58;6.87;;;;;;;;;;746061;79;26343;-74
2022/04/11 08:01:22;;;;;;;7.35;6.03;;;;;;;;;;725897;82;26447;-75
2022/04/11 08:02:25;;;;;;;6.62;6.10;;;;;;;;;;761442;78;26681;-74
2022/04/11 08:03:29;;;;;;;9.55;6.25;;;;;;;;;;761669;77;26377;-75
2022/04/11 08:07:41;;;;;;;6.58;5.92;;;;;;;;;;796321;73;26231;-75
2022/04/11 08:08:46;;;;;;;6.62;6.03;;;;;;;;;;799000;74;26223;-75
2022/04/11 08:09:49;;;;;;;6.47;5.80;;;;;;;;;;799031;74;26288;-74
2022/04/11 08:10:52;;;;;;;7.25;6.55;;;;;;;;;;799008;74;26231;-75
2022/04/11 08:11:55;;;;;;;6.28;5.70;;;;;;;;;;798934;74;26231;-74
2022/04/11 08:12:59;;;;;;;7.00;6.22;;;;;;;;;;799004;74;26227;-76
2022/04/11 08:22:11;;;;;;;7.05;5.97;;;;;;;;;;800389;74;26252;-75
2022/04/11 08:23:14;;;;;;;6.20;5.60;;;;;;;;;;776978;76;26296;-75
2022/04/11 08:27:58;;;;;;;6.33;5.72;;;;;;;;;;780393;76;26629;-75
2022/04/11 08:29:01;;;;;;;5.75;5.25;;;;;;;;;;780227;76;26322;-75
2022/04/11 08:30:04;;;;;;;6.30;5.70;;;;;;;;;;780261;76;26248;-75
2022/04/11 08:31:07;;;;;;;5.95;5.30;;;;;;;;;;780035;76;26251;-76
2022/04/11 08:32:12;;;;;;;5.97;5.47;;;;;;;;;;780105;76;26305;-75
2022/04/11 08:33:15;;;;;;;5.78;5.28;;;;;;;;;;780168;76;26251;-74
2022/04/11 08:36:07;;;;;;;6.10;5.60;;;;;;;;;;788363;75;26766;-74
2022/04/11 08:37:10;;;;;;;5.95;5.35;;;;;;;;;;788478;75;26293;-76
2022/04/11 08:38:13;;;;;;;7.90;5.78;;;;;;;;;;788503;75;26676;-77
2022/04/11 08:39:16;;;;;;;5.83;5.33;;;;;;;;;;788394;75;26231;-76
2022/04/11 08:40:19;;;;;;;6.03;5.53;;;;;;;;;;788450;75;26320;-75
2022/04/11 08:41:22;;;;;;;5.95;5.35;;;;;;;;;;788550;75;26246;-75
2022/04/11 08:42:25;;;;;;;5.83;5.37;;;;;;;;;;788833;75;26235;-75
2022/04/11 08:43:28;;;;;;;6.25;5.55;;;;;;;;;;788988;75;26224;-76
2022/04/11 08:48:13;;;;;;;6.00;5.47;;;;;;;;;;796776;74;26260;-77
2022/04/11 08:49:15;;;;;;;10.28;5.90;;;;;;;;;;796899;74;26235;-77
2022/04/11 08:50:18;;;;;;;5.67;5.20;;;;;;;;;;796831;74;26241;-76
2022/04/11 08:51:22;;;;;;;6.45;5.85;;;;;;;;;;796917;74;26303;-75
2022/04/11 08:52:27;;;;;;;6.70;6.10;;;;;;;;;;797007;74;26302;-75
2022/04/11 08:53:30;;;;;;;6.67;5.95;;;;;;;;;;796803;74;26243;-74
2022/04/11 08:56:43;;;;;;;7.42;6.72;;;;;;;;;;773680;73;26253;-78
2022/04/11 08:57:46;;;;;;;6.65;6.05;;;;;;;;;;761477;78;26760;-76
2022/04/11 08:58:49;;;;;;;6.45;5.85;;;;;;;;;;761289;77;26318;-75
2022/04/11 08:59:52;;;;;;;5.85;5.47;;;;;;;;;;761264;78;26299;-77
2022/04/11 09:00:55;;;;;;;6.15;5.62;;;;;;;;;;761783;78;26254;-75
2022/04/11 09:01:58;;;;;;;6.15;5.70;;;;;;;;;;761679;78;26332;-75
2022/04/11 09:03:01;;;;;;;6.75;6.20;;;;;;;;;;761511;78;26717;-75
2022/04/11 09:08:27;;;;;;;5.65;5.15;;;;;;;;;;793520;74;26575;-75
2022/04/11 09:09:40;;;;;;;5.95;5.45;;;;;;;;;;792968;75;26229;-75
2022/04/11 09:10:43;;;;;;;6.40;5.80;;;;;;;;;;793062;75;26240;-75
2022/04/11 09:11:46;;;;;;;6.30;5.80;;;;;;;;;;792952;75;26240;-77
2022/04/11 09:12:49;;;;;;;6.78;6.08;;;;;;;;;;792349;75;26286;-75
2022/04/11 09:15:56;;;;;;;6.47;5.95;;;;;;;;;;793015;75;26149;-77
2022/04/11 09:17:00;;;;;;;6.62;5.95;;;;;;;;;;759523;78;26310;-75
2022/04/11 09:18:03;;;;;;;5.50;5.10;;;;;;;;;;759599;78;26314;-75
2022/04/11 09:19:06;;;;;;;6.05;5.53;;;;;;;;;;759503;78;26261;-75
2022/04/11 09:20:10;;;;;;;7.42;6.45;;;;;;;;;;759513;78;26257;-74
2022/04/11 09:21:15;;;;;;;6.05;5.42;;;;;;;;;;759100;78;26666;-77
2022/04/11 09:22:19;;;;;;;6.25;5.58;;;;;;;;;;760965;78;26312;-74
2022/04/11 09:23:23;;;;;;;5.60;5.20;;;;;;;;;;753610;78;26273;-74
2022/04/11 09:26:19;;;;;;;5.58;5.08;;;;;;;;;;772670;77;26676;-77
2022/04/11 09:27:25;;;;;;;6.25;5.72;;;;;;;;;;772643;77;26318;-74
2022/04/11 09:28:27;;;;;;;6.65;6.05;;;;;;;;;;772667;77;26303;-75
2022/04/11 09:29:34;;;;;;;7.12;5.60;;;;;;;;;;772925;77;26255;-75
2022/04/11 09:30:39;;;;;;;6.30;5.75;;;;;;;;;;772906;77;26725;-75
2022/04/11 09:31:42;;;;;;;6.20;5.70;;;;;;;;;;769912;76;26316;-76
2022/04/11 09:32:48;;;;;;;6.45;5.85;;;;;;;;;;773010;77;26255;-76
2022/04/11 09:38:29;;;;;;;6.97;6.00;;;;;;;;;;801861;73;26308;-75
2022/04/11 09:39:33;;;;;;;6.35;5.85;;;;;;;;;;805630;73;26211;-74
2022/04/11 09:40:37;;;;;;;6.25;5.75;;;;;;;;;;805564;73;26222;-75
2022/04/11 09:41:44;;;;;;;6.22;5.72;;;;;;;;;;805579;73;26695;-76
2022/04/11 09:42:47;;;;;;;6.45;5.85;;;;;;;;;;805409;73;26218;-75
2022/04/11 09:48:28;;;;;;;6.67;6.15;;;;;;;;;;771275;76;26223;-75
2022/04/11 09:49:31;;;;;;;6.25;5.60;;;;;;;;;;770800;77;26325;-75
2022/04/11 09:50:34;;;;;;;6.05;5.45;;;;;;;;;;772200;77;26674;-76
2022/04/11 09:51:37;;;;;;;6.10;5.60;;;;;;;;;;772027;77;26235;-74
2022/04/11 10:00:00;;;;;;;5.75;5.25;;;;;;;;;;803010;74;26204;-75
2022/04/11 10:01:05;;;;;;;6.10;5.50;;;;;;;;;;801103;74;26641;-76
2022/04/11 10:02:10;;;;;;;6.28;5.75;;;;;;;;;;802862;73;26233;-74
2022/04/11 10:03:13;;;;;;;6.90;6.35;;;;;;;;;;802987;74;26226;-75
2022/04/11 10:07:04;;;;;;;5.83;5.35;;;;;;;;;;783739;73;26396;-75
2022/04/11 10:08:11;;;;;;;6.50;5.97;;;;;;;;;;794641;74;26683;-75
2022/04/11 10:09:15;;;;;;;5.50;5.10;;;;;;;;;;794622;74;26285;-77
2022/04/11 10:10:17;;;;;;;6.45;5.95;;;;;;;;;;794534;74;26313;-78
2022/04/11 10:11:21;;;;;;;6.30;5.80;;;;;;;;;;794552;74;26315;-75
2022/04/11 10:12:24;;;;;;;6.03;5.62;;;;;;;;;;794535;74;26246;-75
2022/04/11 10:17:03;;;;;;;6.35;5.75;;;;;;;;;;804619;73;26270;-75
2022/04/11 10:18:06;;;;;;;6.65;6.05;;;;;;;;;;809696;73;26282;-74